Time;durP1;ratioP1;P1;durP2;ratioP2;P2;SDS_P1;SDS_P2;PMS_P1;PMS_P2;Temp;Humidity;BMP_temperature;BMP_pressure;BME280_temperature;BME280_humidity;BME280_pressure;Samples;Min_cycle;Max_cycle;Signal;HPM_P1;HPM_P2
2023/07/29 00:00:29;;;;;;;4.05;2.90;;;;;;;-144.32;100.00;68061.97;10199241;28;20562;-78
2023/07/29 00:05:30;;;;;;;3.92;3.13;;;;;;;-144.32;100.00;68061.97;10180746;29;20612;-77
2023/07/29 00:10:36;;;;;;;3.63;2.90;;;;;;;-144.32;100.00;68061.97;10207068;29;20079;-78
2023/07/29 00:15:37;;;;;;;3.97;3.30;;;;;;;-144.32;100.00;68061.97;10201251;29;20135;-78
2023/07/29 00:20:37;;;;;;;3.78;3.38;;;;;;;-144.32;100.00;68061.97;10200557;29;20559;-79
2023/07/29 00:25:38;;;;;;;4.05;3.08;;;;;;;-144.32;100.00;68061.97;10203907;29;20056;-79
2023/07/29 00:30:38;;;;;;;3.90;3.33;;;;;;;-144.32;100.00;68061.97;10202104;29;20063;-80
2023/07/29 00:35:40;;;;;;;4.95;3.40;;;;;;;-144.32;100.00;68061.97;10205944;29;20047;-79
2023/07/29 00:40:41;;;;;;;4.33;3.80;;;;;;;-144.32;100.00;68061.97;10196096;29;20552;-80
2023/07/29 00:45:44;;;;;;;4.60;3.47;;;;;;;-144.32;100.00;68061.97;10210475;29;20047;-79
2023/07/29 00:50:45;;;;;;;6.15;3.88;;;;;;;-144.32;100.00;68061.97;10188623;29;20047;-79
2023/07/29 00:55:45;;;;;;;3.60;3.30;;;;;;;-144.32;100.00;68061.97;10210062;29;20515;-76
2023/07/29 01:00:46;;;;;;;4.18;3.78;;;;;;;-144.32;100.00;68061.97;10189717;29;20110;-79
2023/07/29 01:06:10;;;;;;;4.40;4.00;;;;;;;-144.32;100.00;68061.97;10191104;29;20067;-79
2023/07/29 01:11:37;;;;;;;4.22;3.55;;;;;;;-144.32;100.00;68061.97;10213920;29;20047;-77
2023/07/29 01:16:52;;;;;;;5.22;4.00;;;;;;;-144.32;100.00;68061.97;10167626;29;20060;-80
2023/07/29 01:21:54;;;;;;;5.88;4.70;;;;;;;-144.32;100.00;68061.97;10211242;29;20049;-78
2023/07/29 01:26:55;;;;;;;6.00;4.22;;;;;;;-144.32;100.00;68061.97;10207928;28;20055;-77
2023/07/29 01:32:01;;;;;;;5.28;4.07;;;;;;;-144.32;100.00;68061.97;10203555;29;20058;-77
2023/07/29 01:37:05;;;;;;;6.70;4.97;;;;;;;-144.32;100.00;68061.97;10191991;29;20131;-77
2023/07/29 01:42:07;;;;;;;5.25;4.60;;;;;;;-144.32;100.00;68061.97;10190249;28;20154;-77
2023/07/29 01:47:08;;;;;;;5.57;4.68;;;;;;;-144.32;100.00;68061.97;10192038;29;20048;-77
2023/07/29 01:52:09;;;;;;;5.72;4.93;;;;;;;-144.32;100.00;68061.97;10193902;29;20044;-76
2023/07/29 01:57:09;;;;;;;6.38;4.30;;;;;;;-144.32;100.00;68061.97;10189570;29;20356;-77
2023/07/29 02:02:10;;;;;;;4.60;4.13;;;;;;;-144.32;100.00;68061.97;10187468;29;20047;-76
2023/07/29 02:07:10;;;;;;;5.38;4.38;;;;;;;-144.32;100.00;68061.97;10207186;29;20055;-76
2023/07/29 02:12:11;;;;;;;4.63;4.13;;;;;;;-144.32;100.00;68061.97;10204323;29;20042;-77
2023/07/29 02:17:11;;;;;;;4.88;4.15;;;;;;;-144.32;100.00;68061.97;10203124;28;20055;-75
2023/07/29 02:22:17;;;;;;;7.45;4.95;;;;;;;-144.32;100.00;68061.97;10188619;29;20098;-76
2023/07/29 02:27:17;;;;;;;6.47;5.07;;;;;;;-144.32;100.00;68061.97;10187177;29;20043;-76
2023/07/29 02:32:18;;;;;;;5.55;4.13;;;;;;;-144.32;100.00;68061.97;10191766;29;20036;-76
2023/07/29 02:37:19;;;;;;;5.00;4.28;;;;;;;-144.32;100.00;68061.97;10204779;29;20110;-77
2023/07/29 02:42:20;;;;;;;5.78;5.03;;;;;;;-144.32;100.00;68061.97;10207578;29;20400;-74
2023/07/29 02:47:20;;;;;;;5.38;4.65;;;;;;;-144.32;100.00;68061.97;10187655;29;20054;-76
2023/07/29 02:52:21;;;;;;;5.20;4.70;;;;;;;-144.32;100.00;68061.97;10203590;28;20063;-78
2023/07/29 02:57:22;;;;;;;6.75;4.75;;;;;;;-144.32;100.00;68061.97;10204244;29;20769;-79
2023/07/29 03:02:22;;;;;;;5.53;3.80;;;;;;;-144.32;100.00;68061.97;10202526;29;20621;-79
2023/07/29 03:07:22;;;;;;;5.55;4.82;;;;;;;-144.32;100.00;68061.97;10185470;29;20476;-76
2023/07/29 03:12:26;;;;;;;5.03;4.53;;;;;;;-144.32;100.00;68061.97;10207020;29;20384;-75
2023/07/29 03:17:27;;;;;;;6.90;5.05;;;;;;;-144.32;100.00;68061.97;10203201;29;20069;-77
2023/07/29 03:22:30;;;;;;;;;;;;;;;-144.32;100.00;68061.97;10198843;29;20130;-75
2023/07/29 03:27:31;;;;;;;6.47;5.63;;;;;;;-144.32;100.00;68061.97;10205844;29;19957;-75
2023/07/29 03:32:31;;;;;;;5.43;4.65;;;;;;;-144.32;100.00;68061.97;10198169;29;20043;-75
2023/07/29 03:37:32;;;;;;;6.22;4.82;;;;;;;-144.32;100.00;68061.97;10186039;28;20071;-74
2023/07/29 03:42:33;;;;;;;7.03;5.68;;;;;;;-144.32;100.00;68061.97;10205987;29;20107;-76
2023/07/29 03:47:33;;;;;;;7.78;6.05;;;;;;;-144.32;100.00;68061.97;10185180;29;20047;-75
2023/07/29 03:52:34;;;;;;;7.57;6.50;;;;;;;-144.32;100.00;68061.97;10181588;29;20122;-76
2023/07/29 03:57:35;;;;;;;7.35;6.35;;;;;;;-144.32;100.00;68061.97;10183429;29;20138;-76
2023/07/29 04:02:38;;;;;;;8.88;6.78;;;;;;;-144.32;100.00;68061.97;10200903;29;20043;-77
2023/07/29 04:07:39;;;;;;;8.40;6.85;;;;;;;-144.32;100.00;68061.97;10202269;29;20054;-76
2023/07/29 04:12:40;;;;;;;7.70;6.78;;;;;;;-144.32;100.00;68061.97;10180026;29;20568;-77
2023/07/29 04:17:40;;;;;;;9.38;6.75;;;;;;;-144.32;100.00;68061.97;10202201;29;20054;-76
2023/07/29 04:22:41;;;;;;;8.48;6.97;;;;;;;-144.32;100.00;68061.97;10187966;29;20051;-76
2023/07/29 04:27:44;;;;;;;10.70;7.72;;;;;;;-144.32;100.00;68061.97;10182573;29;20440;-76
2023/07/29 04:32:48;;;;;;;8.07;7.28;;;;;;;-144.32;100.00;68061.97;10190901;29;20040;-76
2023/07/29 04:37:48;;;;;;;11.30;8.13;;;;;;;-144.32;100.00;68061.97;10204387;29;20065;-77
2023/07/29 04:42:49;;;;;;;9.18;7.65;;;;;;;-144.32;100.00;68061.97;10196651;29;20606;-75
2023/07/29 04:47:50;;;;;;;8.63;7.13;;;;;;;-144.32;100.00;68061.97;10195138;29;20047;-76
2023/07/29 04:52:50;;;;;;;7.00;6.25;;;;;;;-144.32;100.00;68061.97;10199931;29;20043;-77
2023/07/29 04:57:51;;;;;;;9.20;6.07;;;;;;;-144.32;100.00;68061.97;10179253;28;20052;-77
2023/07/29 05:02:51;;;;;;;7.25;5.22;;;;;;;-144.32;100.00;68061.97;10203709;29;20065;-77
2023/07/29 05:07:52;;;;;;;6.47;5.00;;;;;;;-144.32;100.00;68061.97;10198769;29;20080;-76
2023/07/29 05:12:52;;;;;;;6.07;4.88;;;;;;;-144.32;100.00;68061.97;10178340;29;20050;-76
2023/07/29 05:17:53;;;;;;;6.28;5.50;;;;;;;-144.32;100.00;68061.97;10187155;29;20054;-75
2023/07/29 05:22:53;;;;;;;6.05;4.30;;;;;;;-144.32;100.00;68061.97;10194506;29;20123;-76
2023/07/29 05:27:54;;;;;;;5.53;4.88;;;;;;;-144.32;100.00;68061.97;10193981;29;20038;-77
2023/07/29 05:32:55;;;;;;;5.13;4.63;;;;;;;-144.32;100.00;68061.97;10197205;29;20043;-77
2023/07/29 05:37:55;;;;;;;5.93;5.07;;;;;;;-144.32;100.00;68061.97;10203511;29;20103;-76
2023/07/29 05:42:56;;;;;;;4.30;3.70;;;;;;;-144.32;100.00;68061.97;10183322;29;20051;-74
2023/07/29 05:47:56;;;;;;;6.00;4.15;;;;;;;-144.32;100.00;68061.97;10187340;28;20052;-76
2023/07/29 05:52:57;;;;;;;6.43;4.13;;;;;;;-144.32;100.00;68061.97;10202300;29;20052;-75
2023/07/29 05:57:58;;;;;;;6.90;4.00;;;;;;;-144.32;100.00;68061.97;10197675;29;20638;-76
2023/07/29 06:02:58;;;;;;;4.82;3.80;;;;;;;-144.32;100.00;68061.97;10203365;29;20048;-77
2023/07/29 06:07:59;;;;;;;5.97;3.92;;;;;;;-144.32;100.00;68061.97;10210093;28;20047;-78
2023/07/29 06:13:00;;;;;;;4.47;3.95;;;;;;;-144.32;100.00;68061.97;10188227;28;20050;-78
2023/07/29 06:18:00;;;;;;;5.20;3.13;;;;;;;-144.32;100.00;68061.97;10209153;29;20051;-77
2023/07/29 06:23:02;;;;;;;5.53;4.15;;;;;;;-144.32;100.00;68061.97;10186981;29;20039;-75
2023/07/29 06:28:02;;;;;;;5.38;3.65;;;;;;;-144.32;100.00;68061.97;10206777;28;20485;-77
2023/07/29 06:33:03;;;;;;;5.72;4.00;;;;;;;-144.32;100.00;68061.97;10176860;28;20062;-77
2023/07/29 06:38:04;;;;;;;4.38;3.97;;;;;;;-144.32;100.00;68061.97;10183081;28;20071;-76
2023/07/29 06:43:04;;;;;;;11.80;5.30;;;;;;;-144.32;100.00;68061.97;10203502;29;20036;-78
2023/07/29 06:48:05;;;;;;;6.72;5.30;;;;;;;-144.32;100.00;68061.97;10197326;29;20058;-78
2023/07/29 06:53:06;;;;;;;7.95;5.82;;;;;;;-144.32;100.00;68061.97;10199419;29;20074;-78
2023/07/29 06:58:06;;;;;;;7.55;5.75;;;;;;;-144.32;100.00;68061.97;10205535;29;20079;-76
2023/07/29 07:03:07;;;;;;;7.80;5.20;;;;;;;-144.32;100.00;68061.97;10207989;29;20568;-75
2023/07/29 07:08:07;;;;;;;6.88;5.60;;;;;;;-144.32;100.00;68061.97;10204440;29;20071;-76
2023/07/29 07:13:08;;;;;;;9.43;6.28;;;;;;;-144.32;100.00;68061.97;10207485;29;20047;-77
2023/07/29 07:18:09;;;;;;;9.00;6.50;;;;;;;-144.32;100.00;68061.97;10200759;28;20484;-80
2023/07/29 07:23:11;;;;;;;8.98;5.55;;;;;;;-144.32;100.00;68061.97;10196571;28;20059;-75
2023/07/29 07:28:12;;;;;;;8.50;6.50;;;;;;;-144.32;100.00;68061.97;10200570;29;20094;-78
2023/07/29 07:33:13;;;;;;;9.25;6.50;;;;;;;-144.32;100.00;68061.97;10216966;29;20133;-80
2023/07/29 07:38:14;;;;;;;7.72;5.88;;;;;;;-144.32;100.00;68061.97;10202121;28;20051;-78
2023/07/29 07:43:15;;;;;;;8.00;6.10;;;;;;;-144.32;100.00;68061.97;10207256;29;20758;-80
2023/07/29 07:48:16;;;;;;;7.13;5.80;;;;;;;-144.32;100.00;68061.97;10201456;28;20058;-79
2023/07/29 07:53:17;;;;;;;6.10;4.82;;;;;;;-144.32;100.00;68061.97;10214321;29;20094;-78
2023/07/29 07:58:17;;;;;;;6.85;4.80;;;;;;;-144.32;100.00;68061.97;10207262;29;20533;-81
2023/07/29 08:03:18;;;;;;;5.85;4.15;;;;;;;-144.32;100.00;68061.97;10194904;29;20047;-82
2023/07/29 08:08:19;;;;;;;6.97;4.35;;;;;;;-144.32;100.00;68061.97;10199807;29;20043;-81
2023/07/29 08:13:19;;;;;;;4.35;3.47;;;;;;;-144.32;100.00;68061.97;10196382;29;20039;-78
2023/07/29 08:18:20;;;;;;;5.68;3.95;;;;;;;-144.32;100.00;68061.97;10202514;28;20079;-77
2023/07/29 08:23:21;;;;;;;4.57;3.65;;;;;;;-144.32;100.00;68061.97;10200956;28;20137;-76
2023/07/29 08:28:23;;;;;;;4.45;3.45;;;;;;;-144.32;100.00;68061.97;10201680;29;20121;-78
2023/07/29 08:33:24;;;;;;;7.10;4.45;;;;;;;-144.32;100.00;68061.97;10198341;29;20074;-74
2023/07/29 08:38:24;;;;;;;5.85;4.18;;;;;;;-144.32;100.00;68061.97;10176647;29;20117;-75
2023/07/29 08:43:32;;;;;;;6.50;5.40;;;;;;;-144.32;100.00;68061.97;10200635;29;20045;-75
2023/07/29 08:48:39;;;;;;;4.80;4.00;;;;;;;-144.32;100.00;68061.97;10200932;28;20048;-77
2023/07/29 08:53:40;;;;;;;7.30;6.20;;;;;;;-144.32;100.00;68061.97;10207297;29;20507;-76
2023/07/29 08:58:41;;;;;;;5.35;4.85;;;;;;;-144.32;100.00;68061.97;10210959;28;20052;-73
2023/07/29 09:03:42;;;;;;;5.20;3.92;;;;;;;-144.32;100.00;68061.97;10198978;28;20059;-77
2023/07/29 09:08:44;;;;;;;3.75;3.22;;;;;;;-144.32;100.00;68061.97;10202703;29;20071;-75
2023/07/29 09:13:45;;;;;;;5.60;3.72;;;;;;;-144.32;100.00;68061.97;10188042;28;20069;-81
2023/07/29 09:18:50;;;;;;;4.82;3.20;;;;;;;-144.32;100.00;68061.97;10184014;28;20062;-76
2023/07/29 09:23:51;;;;;;;5.10;2.97;;;;;;;-144.32;100.00;68061.97;10203140;29;20145;-81
2023/07/29 09:28:53;;;;;;;4.32;2.50;;;;;;;-144.32;100.00;68061.97;10203757;28;20054;-78
2023/07/29 09:34:01;;;;;;;;;;;;;;;-144.32;100.00;68061.97;10201240;28;20104;-74
2023/07/29 09:39:03;;;;;;;2.80;2.15;;;;;;;-144.32;100.00;68061.97;10203316;29;20049;-75
2023/07/29 09:44:04;;;;;;;4.83;2.50;;;;;;;-144.32;100.00;68061.97;10207285;28;20047;-77
2023/07/29 09:49:06;;;;;;;5.07;3.65;;;;;;;-144.32;100.00;68061.97;10201722;28;20051;-77
2023/07/29 09:54:07;;;;;;;5.97;4.15;;;;;;;-144.32;100.00;68061.97;10204661;29;20075;-74
2023/07/29 09:59:08;;;;;;;4.88;3.97;;;;;;;-144.32;100.00;68061.97;10206518;28;20288;-78
2023/07/29 10:04:09;;;;;;;5.40;4.15;;;;;;;-144.32;100.00;68061.97;10183294;29;20051;-80
2023/07/29 10:09:11;;;;;;;4.78;4.28;;;;;;;-144.32;100.00;68061.97;10189130;29;20784;-75
2023/07/29 10:14:13;;;;;;;4.22;3.83;;;;;;;-144.32;100.00;68061.97;10199435;29;20047;-75
2023/07/29 10:19:14;;;;;;;5.15;3.30;;;;;;;-144.32;100.00;68061.97;10202863;29;20051;-74
2023/07/29 10:24:21;;;;;;;3.77;3.20;;;;;;;-144.32;100.00;68061.97;10203269;29;20044;-74
2023/07/29 10:29:24;;;;;;;8.43;6.47;;;;;;;-144.32;100.00;68061.97;10209226;29;20539;-76
2023/07/29 10:34:25;;;;;;;3.95;3.53;;;;;;;-144.32;100.00;68061.97;10202324;29;20054;-79
2023/07/29 10:39:26;;;;;;;5.18;3.65;;;;;;;-144.32;100.00;68061.97;10203598;28;20050;-75
2023/07/29 10:44:51;;;;;;;4.57;3.65;;;;;;;-144.32;100.00;68061.97;10202537;29;20043;-76
2023/07/29 10:49:54;;;;;;;5.50;3.90;;;;;;;-144.32;100.00;68061.97;10204561;29;20051;-73
2023/07/29 10:54:55;;;;;;;4.97;3.67;;;;;;;-144.32;100.00;68061.97;10200857;29;20039;-76
2023/07/29 10:59:56;;;;;;;2.60;2.40;;;;;;;-144.32;100.00;68061.97;10204696;29;20048;-78
2023/07/29 11:04:59;;;;;;;2.83;2.47;;;;;;;-144.32;100.00;68061.97;10195699;29;20055;-77
2023/07/29 11:10:04;;;;;;;4.53;3.63;;;;;;;-144.32;100.00;68061.97;10221203;28;20047;-85
2023/07/29 11:15:13;;;;;;;4.43;2.40;;;;;;;-144.32;100.00;68061.97;10215842;28;20159;-82
2023/07/29 11:20:16;;;;;;;2.70;2.50;;;;;;;-144.32;100.00;68061.97;10171342;29;20086;-81
2023/07/29 11:25:18;;;;;;;3.55;2.20;;;;;;;-144.32;100.00;68061.97;10209998;29;20106;-82
2023/07/29 11:30:21;;;;;;;3.85;2.45;;;;;;;-144.32;100.00;68061.97;10201878;29;20047;-81
2023/07/29 11:35:22;;;;;;;3.25;2.80;;;;;;;-144.32;100.00;68061.97;10205505;28;20055;-81
2023/07/29 11:40:23;;;;;;;3.15;2.67;;;;;;;-144.32;100.00;68061.97;10190826;29;20055;-83
2023/07/29 11:45:23;;;;;;;3.53;2.42;;;;;;;-144.32;100.00;68061.97;10210409;28;20043;-82
2023/07/29 11:50:24;;;;;;;4.55;2.53;;;;;;;-144.32;100.00;68061.97;10226578;28;20158;-81
2023/07/29 11:55:25;;;;;;;4.85;3.13;;;;;;;-144.32;100.00;68061.97;10224689;29;20067;-82
2023/07/29 12:00:25;;;;;;;2.90;2.60;;;;;;;-144.32;100.00;68061.97;10247165;29;20102;-79
2023/07/29 12:05:27;;;;;;;4.03;3.15;;;;;;;-144.32;100.00;68061.97;10234164;29;20054;-79
2023/07/29 12:10:27;;;;;;;2.95;2.60;;;;;;;-144.32;100.00;68061.97;10224193;29;20043;-82
2023/07/29 12:15:29;;;;;;;2.72;2.53;;;;;;;-144.32;100.00;68061.97;10201276;29;20800;-82
2023/07/29 12:20:30;;;;;;;2.90;2.50;;;;;;;-144.32;100.00;68061.97;10231587;28;20043;-82
2023/07/29 12:25:30;;;;;;;2.15;1.95;;;;;;;-144.32;100.00;68061.97;10191790;28;20657;-76
2023/07/29 12:30:31;;;;;;;3.17;1.90;;;;;;;-144.32;100.00;68061.97;10205399;28;20058;-81
2023/07/29 12:35:38;;;;;;;1.98;1.85;;;;;;;-144.32;100.00;68061.97;10215600;29;20043;-78
2023/07/29 12:40:40;;;;;;;2.10;1.85;;;;;;;-144.32;100.00;68061.97;10207644;28;20063;-80
2023/07/29 12:45:41;;;;;;;2.50;1.98;;;;;;;-144.32;100.00;68061.97;10218556;29;20043;-80
2023/07/29 12:50:42;;;;;;;2.57;2.13;;;;;;;-144.32;100.00;68061.97;10206617;29;20060;-78
2023/07/29 12:55:42;;;;;;;2.33;2.08;;;;;;;-144.32;100.00;68061.97;10204540;29;21320;-82
2023/07/29 13:00:42;;;;;;;3.53;2.30;;;;;;;-144.32;100.00;68061.97;10204385;28;20043;-80
2023/07/29 13:05:43;;;;;;;2.10;1.90;;;;;;;-144.32;100.00;68061.97;10206802;28;20047;-81
2023/07/29 13:10:43;;;;;;;3.00;1.80;;;;;;;-144.32;100.00;68061.97;10206395;29;20058;-81
2023/07/29 13:15:44;;;;;;;2.03;1.60;;;;;;;-144.32;100.00;68061.97;10207110;29;20401;-78
2023/07/29 13:20:44;;;;;;;3.35;2.15;;;;;;;-144.32;100.00;68061.97;10204167;29;20043;-78
2023/07/29 13:25:45;;;;;;;2.35;1.90;;;;;;;-144.32;100.00;68061.97;10203198;28;20051;-78
2023/07/29 13:30:47;;;;;;;3.47;2.40;;;;;;;-144.32;100.00;68061.97;10202599;28;20563;-78
2023/07/29 13:35:47;;;;;;;2.53;2.33;;;;;;;-144.32;100.00;68061.97;10209380;28;20047;-78
2023/07/29 13:40:50;;;;;;;2.72;1.95;;;;;;;-144.32;100.00;68061.97;10200454;28;20103;-83
2023/07/29 13:45:51;;;;;;;2.05;1.60;;;;;;;-144.32;100.00;68061.97;10194591;29;20107;-78
2023/07/29 13:50:52;;;;;;;1.83;1.50;;;;;;;-144.32;100.00;68061.97;10203746;29;20150;-76
2023/07/29 13:55:52;;;;;;;1.55;1.20;;;;;;;-144.32;100.00;68061.97;10201943;29;20062;-74
2023/07/29 14:00:53;;;;;;;1.70;1.40;;;;;;;-144.32;100.00;68061.97;10199867;28;20401;-76
2023/07/29 14:05:54;;;;;;;1.67;1.27;;;;;;;-144.32;100.00;68061.97;10206429;28;20457;-72
2023/07/29 14:10:54;;;;;;;2.08;1.33;;;;;;;-144.32;100.00;68061.97;10200653;28;20067;-74
2023/07/29 14:15:55;;;;;;;1.55;1.45;;;;;;;-144.32;100.00;68061.97;10180768;29;20126;-75
2023/07/29 14:20:55;;;;;;;2.30;1.48;;;;;;;-144.32;100.00;68061.97;10205010;29;20055;-81
2023/07/29 14:25:55;;;;;;;1.45;1.35;;;;;;;-144.32;100.00;68061.97;10212302;29;20635;-83
2023/07/29 14:30:56;;;;;;;1.63;1.40;;;;;;;-144.32;100.00;68061.97;10205231;28;20049;-80
2023/07/29 14:35:56;;;;;;;1.48;1.38;;;;;;;-144.32;100.00;68061.97;10201200;28;20051;-81
2023/07/29 14:40:57;;;;;;;1.20;1.10;;;;;;;-144.32;100.00;68061.97;10208948;28;20056;-78
2023/07/29 14:45:58;;;;;;;2.85;1.23;;;;;;;-144.32;100.00;68061.97;10214491;28;20059;-78
2023/07/29 14:50:58;;;;;;;2.40;1.30;;;;;;;-144.32;100.00;68061.97;10210504;28;20052;-80
2023/07/29 14:56:00;;;;;;;1.47;1.27;;;;;;;-144.32;100.00;68061.97;10214575;29;20044;-78
2023/07/29 15:01:04;;;;;;;2.30;1.35;;;;;;;-144.32;100.00;68061.97;10199040;28;20035;-78
2023/07/29 15:06:04;;;;;;;1.70;1.43;;;;;;;-144.32;100.00;68061.97;10198544;29;20571;-76
2023/07/29 15:11:05;;;;;;;1.83;1.57;;;;;;;-144.32;100.00;68061.97;10198257;29;20077;-74
2023/07/29 15:16:06;;;;;;;1.97;1.50;;;;;;;-144.32;100.00;68061.97;10198699;29;20194;-78
2023/07/29 15:21:06;;;;;;;6.53;5.60;;;;;;;-144.32;100.00;68061.97;10201243;29;20299;-77
2023/07/29 15:26:07;;;;;;;2.13;1.70;;;;;;;-144.32;100.00;68061.97;10196161;29;20126;-78
2023/07/29 15:31:07;;;;;;;1.80;1.40;;;;;;;-144.32;100.00;68061.97;10200996;28;20503;-79
2023/07/29 15:36:08;;;;;;;1.77;1.63;;;;;;;-144.32;100.00;68061.97;10195219;29;20059;-79
2023/07/29 15:41:08;;;;;;;1.80;1.53;;;;;;;-144.32;100.00;68061.97;10200222;29;20040;-78
2023/07/29 15:46:09;;;;;;;2.20;2.00;;;;;;;-144.32;100.00;68061.97;10199463;29;20071;-78
2023/07/29 15:51:09;;;;;;;2.23;1.90;;;;;;;-144.32;100.00;68061.97;10201136;29;20043;-78
2023/07/29 15:56:10;;;;;;;1.77;1.67;;;;;;;-144.32;100.00;68061.97;10190549;29;20074;-80
2023/07/29 16:01:10;;;;;;;2.30;1.63;;;;;;;-144.32;100.00;68061.97;10192943;28;20040;-80
2023/07/29 16:06:11;;;;;;;2.03;1.70;;;;;;;-144.32;100.00;68061.97;10198872;29;20059;-81
2023/07/29 16:11:11;;;;;;;2.77;1.77;;;;;;;-144.32;100.00;68061.97;10198694;29;20777;-78
2023/07/29 16:16:12;;;;;;;2.08;1.70;;;;;;;-144.32;100.00;68061.97;10199807;28;20044;-77
2023/07/29 16:21:15;;;;;;;2.58;1.85;;;;;;;-144.32;100.00;68061.97;10194226;29;20058;-79
2023/07/29 16:26:15;;;;;;;2.42;1.77;;;;;;;-144.32;100.00;68061.97;10197304;29;20048;-77
2023/07/29 16:31:18;;;;;;;1.95;1.40;;;;;;;-144.32;100.00;68061.97;10192953;28;20048;-74
2023/07/29 16:36:19;;;;;;;2.75;1.58;;;;;;;-144.32;100.00;68061.97;10194129;29;20634;-77
2023/07/29 16:41:20;;;;;;;1.73;1.63;;;;;;;-144.32;100.00;68061.97;10198041;29;20084;-78
2023/07/29 16:46:20;;;;;;;2.90;1.70;;;;;;;-144.32;100.00;68061.97;10198252;29;20535;-79
2023/07/29 16:51:21;;;;;;;1.95;1.40;;;;;;;-144.32;100.00;68061.97;10189481;29;20047;-80
2023/07/29 16:56:22;;;;;;;2.35;1.98;;;;;;;-144.32;100.00;68061.97;10191528;29;20118;-79
2023/07/29 17:01:22;;;;;;;1.92;1.65;;;;;;;-144.32;100.00;68061.97;10194966;29;20058;-77
2023/07/29 17:06:23;;;;;;;2.22;1.83;;;;;;;-144.32;100.00;68061.97;10193648;29;20040;-79
2023/07/29 17:11:23;;;;;;;1.55;1.40;;;;;;;-144.32;100.00;68061.97;10197057;29;20058;-78
2023/07/29 17:16:24;;;;;;;1.98;1.77;;;;;;;-144.32;100.00;68061.97;10211536;29;20041;-78
2023/07/29 17:21:24;;;;;;;1.73;1.63;;;;;;;-144.32;100.00;68061.97;10205192;29;20041;-78
2023/07/29 17:26:25;;;;;;;2.58;1.50;;;;;;;-144.32;100.00;68061.97;10201332;28;20154;-79
2023/07/29 17:31:25;;;;;;;2.47;1.80;;;;;;;-144.32;100.00;68061.97;10201114;28;20047;-79
2023/07/29 17:36:26;;;;;;;3.08;1.63;;;;;;;-144.32;100.00;68061.97;10202745;28;20052;-82
2023/07/29 17:41:26;;;;;;;3.30;1.70;;;;;;;-144.32;100.00;68061.97;10199098;29;20099;-75
2023/07/29 17:46:27;;;;;;;5.40;2.30;;;;;;;-144.32;100.00;68061.97;10203381;28;20048;-76
2023/07/29 17:51:27;;;;;;;2.08;1.70;;;;;;;-144.32;100.00;68061.97;10205031;28;20081;-77
2023/07/29 17:56:28;;;;;;;3.08;2.05;;;;;;;-144.32;100.00;68061.97;10203033;29;20035;-78
2023/07/29 18:01:28;;;;;;;2.10;1.70;;;;;;;-144.32;100.00;68061.97;10202472;29;20047;-77
2023/07/29 18:06:29;;;;;;;3.17;2.05;;;;;;;-144.32;100.00;68061.97;10205321;28;20047;-77
2023/07/29 18:11:30;;;;;;;2.10;1.60;;;;;;;-144.32;100.00;68061.97;10199816;29;20090;-78
2023/07/29 18:16:30;;;;;;;2.75;2.00;;;;;;;-144.32;100.00;68061.97;10202288;29;20082;-78
2023/07/29 18:21:31;;;;;;;2.33;2.13;;;;;;;-144.32;100.00;68061.97;10202988;29;20416;-80
2023/07/29 18:26:32;;;;;;;2.97;2.03;;;;;;;-144.32;100.00;68061.97;10201665;29;20052;-80
2023/07/29 18:31:32;;;;;;;3.38;2.08;;;;;;;-144.32;100.00;68061.97;10199577;28;20069;-75
2023/07/29 18:36:33;;;;;;;2.38;2.17;;;;;;;-144.32;100.00;68061.97;10201537;29;20043;-76
2023/07/29 18:41:34;;;;;;;2.65;2.45;;;;;;;-144.32;100.00;68061.97;10200436;29;20094;-77
2023/07/29 18:46:34;;;;;;;2.60;2.40;;;;;;;-144.32;100.00;68061.97;10203157;29;20039;-78
2023/07/29 18:51:36;;;;;;;2.30;2.10;;;;;;;-144.32;100.00;68061.97;10173967;29;20106;-78
2023/07/29 18:56:36;;;;;;;2.42;2.10;;;;;;;-144.32;100.00;68061.97;10183189;28;20867;-77
2023/07/29 19:01:37;;;;;;;3.15;2.38;;;;;;;-144.32;100.00;68061.97;10204613;28;20050;-80
2023/07/29 19:06:37;;;;;;;3.05;2.50;;;;;;;-144.32;100.00;68061.97;10182836;29;20051;-80
2023/07/29 19:11:38;;;;;;;2.50;2.20;;;;;;;-144.32;100.00;68061.97;10200541;28;20047;-77
2023/07/29 19:16:38;;;;;;;2.50;2.30;;;;;;;-144.32;100.00;68061.97;10201131;28;20078;-80
2023/07/29 19:21:39;;;;;;;3.72;2.60;;;;;;;-144.32;100.00;68061.97;10192692;29;20557;-78
2023/07/29 19:26:39;;;;;;;3.05;2.65;;;;;;;-144.32;100.00;68061.97;10202685;28;20612;-78
2023/07/29 19:31:43;;;;;;;3.17;2.88;;;;;;;-144.32;100.00;68061.97;10188773;28;20053;-79
2023/07/29 19:36:44;;;;;;;6.25;2.90;;;;;;;-144.32;100.00;68061.97;10204025;28;20039;-78
2023/07/29 19:41:44;;;;;;;3.05;2.67;;;;;;;-144.32;100.00;68061.97;10187718;28;20035;-77
2023/07/29 19:46:45;;;;;;;3.17;2.88;;;;;;;-144.32;100.00;68061.97;10202266;28;20043;-79
2023/07/29 19:51:45;;;;;;;3.60;3.30;;;;;;;-144.32;100.00;68061.97;10206748;28;20114;-78
2023/07/29 19:56:46;;;;;;;4.13;3.13;;;;;;;-144.32;100.00;68061.97;10201367;28;20453;-79
2023/07/29 20:01:46;;;;;;;4.25;3.25;;;;;;;-144.32;100.00;68061.97;10201868;28;20436;-77
2023/07/29 20:06:52;;;;;;;3.50;3.13;;;;;;;-144.32;100.00;68061.97;10200746;29;20054;-80
2023/07/29 20:11:53;;;;;;;3.88;3.17;;;;;;;-144.32;100.00;68061.97;10196062;28;20482;-78
2023/07/29 20:16:54;;;;;;;4.93;4.15;;;;;;;-144.32;100.00;68061.97;10201447;28;20048;-79
2023/07/29 20:21:54;;;;;;;4.25;3.85;;;;;;;-144.32;100.00;68061.97;10195687;28;20055;-78
2023/07/29 20:26:54;;;;;;;3.50;3.20;;;;;;;-144.32;100.00;68061.97;10196186;28;20090;-78
2023/07/29 20:31:55;;;;;;;3.40;3.08;;;;;;;-144.32;100.00;68061.97;10197664;28;20047;-78
2023/07/29 20:36:56;;;;;;;3.83;2.97;;;;;;;-144.32;100.00;68061.97;10197276;28;20051;-80
2023/07/29 20:41:56;;;;;;;3.53;3.10;;;;;;;-144.32;100.00;68061.97;10200367;28;20052;-79
2023/07/29 20:46:57;;;;;;;3.10;2.90;;;;;;;-144.32;100.00;68061.97;10207491;28;20178;-78
2023/07/29 20:51:57;;;;;;;3.95;3.38;;;;;;;-144.32;100.00;68061.97;10209240;28;20070;-77
2023/07/29 20:56:58;;;;;;;4.43;3.60;;;;;;;-144.32;100.00;68061.97;10214007;28;20043;-78
2023/07/29 21:02:01;;;;;;;4.18;3.78;;;;;;;-144.32;100.00;68061.97;10205938;28;20058;-79
2023/07/29 21:07:02;;;;;;;4.57;3.58;;;;;;;-144.32;100.00;68061.97;10199546;29;20050;-77
2023/07/29 21:12:04;;;;;;;3.83;3.15;;;;;;;-144.32;100.00;68061.97;10203056;29;20133;-79
2023/07/29 21:17:05;;;;;;;3.47;3.05;;;;;;;-144.32;100.00;68061.97;10188824;28;20399;-79
2023/07/29 21:22:05;;;;;;;4.93;3.03;;;;;;;-144.32;100.00;68061.97;10198146;28;20043;-78
2023/07/29 21:27:06;;;;;;;3.30;3.00;;;;;;;-144.32;100.00;68061.97;10199308;29;20046;-78
2023/07/29 21:32:06;;;;;;;3.58;3.20;;;;;;;-144.32;100.00;68061.97;10204758;28;20652;-79
2023/07/29 21:37:07;;;;;;;3.30;3.00;;;;;;;-144.32;100.00;68061.97;10206535;28;20739;-80
2023/07/29 21:42:08;;;;;;;3.35;2.90;;;;;;;-144.32;100.00;68061.97;10189123;28;20106;-80
2023/07/29 21:47:11;;;;;;;3.08;2.50;;;;;;;-144.32;100.00;68061.97;10219430;28;20055;-80
2023/07/29 21:52:11;;;;;;;3.33;2.28;;;;;;;-144.32;100.00;68061.97;10212151;28;20059;-79
2023/07/29 21:57:12;;;;;;;3.00;2.30;;;;;;;-144.32;100.00;68061.97;10213173;29;20055;-80
2023/07/29 22:02:12;;;;;;;3.03;2.58;;;;;;;-144.32;100.00;68061.97;10200198;29;20047;-79
2023/07/29 22:07:13;;;;;;;3.35;2.47;;;;;;;-144.32;100.00;68061.97;10210515;29;20048;-78
2023/07/29 22:12:14;;;;;;;2.63;2.35;;;;;;;-144.32;100.00;68061.97;10214442;28;20070;-78
2023/07/29 22:17:14;;;;;;;2.60;2.20;;;;;;;-144.32;100.00;68061.97;10203907;28;20610;-78
2023/07/29 22:22:15;;;;;;;3.08;2.45;;;;;;;-144.32;100.00;68061.97;10196153;29;20074;-79
2023/07/29 22:27:15;;;;;;;2.40;2.20;;;;;;;-144.32;100.00;68061.97;10201872;29;20069;-77
2023/07/29 22:32:16;;;;;;;2.60;2.40;;;;;;;-144.32;100.00;68061.97;10203096;28;20047;-78